Aérodrome :
LOGIN :

S'inscrire | Disclaimer

   EN    FR    IT 

 










Légende :    VFR   VFR Marginal   IFR   IFR Intensif   IFR Très Intensif
Visi : 
Plafond : 
>= 8 km
>= 3000ft
5 à 8 km
1000 à 3000 ft
1500m à 5 km
500 à 1000 ft
800 à 1500m
200 à 500 ft
< 800m
< 200 ft
Symboles :   Orages  Brouillard  Fortes neiges  Fortes précipitations  Vent > 20 kt
SIGMETs :   Divers  Orages  Givrage  Turbulence  Onde Orograph.  Cendres Volcan.







- Altitude de l'aérodrome : 20 ft


EBFN - Koksijde

DERNIER METAR :
  • 220625Z 06007KT 6000 SKC M02/M03 Q1024 WHT WHT TEMPO GRN

METARs EXPIRÉS :
  • 220555Z 06008KT 7000 SKC M02/M03 Q1023 WHT WHT TEMPO GRN
  • 220525Z 06008KT 7000 SKC M01/M03 Q1023 WHT WHT TEMPO GRN
  • 220521Z 06008KT 7000 SKC M01/M03 Q1023 WHT WHT TEMPO GRN

TAF TAF EBFN
Valide du 22 à 07h jusqu'au 22 à 16h UTC


220541Z 2207/2216 06010KT 6000 SKC
TEMPO 2207/2209 4000 BR
TEMPO 2209/2216 8000
TEMPO 2212/2216 SCT030
Pas de NOTAMs connus pour ce terrain.
1 SIGMET publié pour la FIR Brussels (EBBU) :
 
Turbulence forte
EBBU SIGMET 02 VALID 220600/220800 EBBR
EBBU BRUSSELS FIR SEV TURB FCST E OF E00430 FL170/250 STNR WKN=



MET'MAP, la Météo Aéronautique d'un coup d'oeil ! - Copyright ORBIFLY Décembre 2007 - Disclaimer

ORBIFLY MET'MAP TEAM :

Programmation & Développement : Alexandra Zaïnal
Conception & Développement : Baudouin d'Aumeries
Co-Programmation & Développement : Marc-Olivier Méhu
Soutien technique & logistique : Manuel Goepfert

Contact : metmap@orbifly.com




SOURCES & CREDITS :

   NOAA